Time;durP1;ratioP1;P1;durP2;ratioP2;P2;SDS_P1;SDS_P2;PMS_P1;PMS_P2;Temp;Humidity;BMP_temperature;BMP_pressure;BME280_temperature;BME280_humidity;BME280_pressure;Samples;Min_cycle;Max_cycle;Signal;HPM_P1;HPM_P2
2021/03/15 00:00:07;;;;;;;11.77;4.80;;;6.30;99.20;;;;;;4389255;32;20184;-65
2021/03/15 00:02:34;;;;;;;13.10;5.57;;;6.30;99.20;;;;;;4385880;32;20167;-64
2021/03/15 00:05:00;;;;;;;13.73;5.07;;;6.30;99.20;;;;;;4390993;32;20183;-65
2021/03/15 00:07:27;;;;;;;10.57;3.97;;;6.30;99.20;;;;;;4387752;32;20223;-65
2021/03/15 00:09:53;;;;;;;9.77;3.70;;;6.30;99.20;;;;;;4390298;32;20176;-66
2021/03/15 00:12:20;;;;;;;20.40;4.63;;;6.20;99.20;;;;;;4390677;32;20151;-67
2021/03/15 00:14:46;;;;;;;16.30;3.83;;;6.30;99.20;;;;;;4389978;32;20231;-66
2021/03/15 00:17:12;;;;;;;13.67;3.80;;;6.20;99.30;;;;;;4391497;32;20223;-64
2021/03/15 00:19:38;;;;;;;14.40;3.73;;;6.20;99.30;;;;;;4386095;32;20236;-65
2021/03/15 00:22:04;;;;;;;12.20;3.47;;;6.20;99.40;;;;;;4378764;32;20215;-64
2021/03/15 00:24:32;;;;;;;12.80;3.90;;;6.30;99.40;;;;;;4385066;32;20247;-67
2021/03/15 00:37:04;;;;;;;4.40;2.40;;;6.20;99.50;;;;;;4389879;32;20163;-63
2021/03/15 00:39:32;;;;;;;10.63;3.33;;;6.20;99.60;;;;;;4390008;32;20608;-63
2021/03/15 00:41:58;;;;;;;5.93;2.60;;;6.20;99.50;;;;;;4390001;32;20174;-63
2021/03/15 00:44:25;;;;;;;8.83;2.53;;;6.20;99.60;;;;;;4389219;32;20246;-64
2021/03/15 00:46:54;;;;;;;12.23;2.83;;;6.20;99.60;;;;;;4386182;32;20241;-63
2021/03/15 00:49:20;;;;;;;8.43;2.83;;;6.20;99.60;;;;;;4385417;32;20167;-63
2021/03/15 00:51:46;;;;;;;8.07;2.90;;;6.20;99.50;;;;;;4389796;32;20183;-63
2021/03/15 00:54:13;;;;;;;6.90;2.67;;;6.20;99.60;;;;;;4390106;32;20159;-63
2021/03/15 00:56:40;;;;;;;10.77;3.57;;;6.20;99.60;;;;;;4386495;32;20164;-63
2021/03/15 00:59:06;;;;;;;14.10;3.57;;;6.20;99.50;;;;;;4386037;32;20211;-63
2021/03/15 01:01:32;;;;;;;9.60;3.00;;;6.20;99.50;;;;;;4390004;32;20221;-63
2021/03/15 01:03:59;;;;;;;13.27;3.40;;;6.20;99.50;;;;;;4387150;32;20217;-64
2021/03/15 01:06:25;;;;;;;5.93;2.80;;;6.20;99.60;;;;;;4390102;32;20500;-64
2021/03/15 01:08:51;;;;;;;8.63;3.53;;;6.30;99.50;;;;;;4390222;32;20171;-64
2021/03/15 01:11:18;;;;;;;10.57;3.17;;;6.30;99.60;;;;;;4390933;32;20242;-67
2021/03/15 01:13:45;;;;;;;9.63;3.13;;;6.30;99.50;;;;;;4389818;32;20543;-65
2021/03/15 01:16:11;;;;;;;11.73;3.17;;;6.30;99.50;;;;;;4389770;32;20231;-66
2021/03/15 01:18:38;;;;;;;7.33;3.00;;;6.10;99.50;;;;;;4389354;32;20168;-66
2021/03/15 01:21:04;;;;;;;12.10;4.10;;;6.20;99.60;;;;;;4385664;32;20152;-67
2021/03/15 01:23:31;;;;;;;7.23;3.77;;;6.30;99.60;;;;;;4385235;32;20223;-66
2021/03/15 01:25:57;;;;;;;13.33;3.63;;;6.20;99.60;;;;;;4389740;32;20570;-64
2021/03/15 01:28:24;;;;;;;9.10;3.53;;;6.30;99.60;;;;;;4389384;32;20140;-66
2021/03/15 01:30:51;;;;;;;10.13;4.30;;;6.30;99.60;;;;;;4389271;32;20198;-67
2021/03/15 01:33:18;;;;;;;11.30;4.20;;;6.20;99.70;;;;;;4388373;32;20178;-68
2021/03/15 01:35:44;;;;;;;11.97;4.10;;;6.30;99.70;;;;;;4385098;32;20239;-67
2021/03/15 01:38:11;;;;;;;11.27;3.60;;;6.30;99.70;;;;;;4389062;32;20179;-64
2021/03/15 01:40:39;;;;;;;12.13;4.27;;;6.30;99.70;;;;;;4389529;32;20580;-67
2021/03/15 01:43:06;;;;;;;14.57;4.23;;;6.30;99.80;;;;;;4389136;32;20222;-64
2021/03/15 01:45:33;;;;;;;15.87;4.30;;;6.30;99.80;;;;;;4388497;32;20180;-66
2021/03/15 01:48:00;;;;;;;11.30;4.20;;;6.30;99.80;;;;;;4386982;32;20298;-65
2021/03/15 01:50:27;;;;;;;15.87;5.10;;;6.30;99.80;;;;;;4386224;32;20211;-68
2021/03/15 01:52:55;;;;;;;11.17;5.00;;;6.30;99.80;;;;;;4386207;32;20205;-65
2021/03/15 01:55:23;;;;;;;15.20;4.73;;;6.30;99.80;;;;;;4390346;32;20190;-66
2021/03/15 01:57:50;;;;;;;15.77;4.40;;;6.30;99.80;;;;;;4394028;32;20235;-66
2021/03/15 02:00:19;;;;;;;10.60;4.40;;;6.30;99.80;;;;;;4392209;32;20187;-66
2021/03/15 02:02:51;;;;;;;8.60;4.30;;;6.30;99.80;;;;;;4391759;32;20243;-62
2021/03/15 02:05:18;;;;;;;11.20;5.10;;;6.30;99.80;;;;;;4391668;32;20231;-67
2021/03/15 02:07:44;;;;;;;16.63;5.57;;;6.20;99.90;;;;;;4389252;32;20160;-67
2021/03/15 02:10:12;;;;;;;13.80;5.57;;;6.30;99.90;;;;;;4391167;32;20700;-64
2021/03/15 02:13:20;;;;;;;13.97;5.67;;;6.20;99.90;;;;;;4392445;32;20169;-62
2021/03/15 02:15:56;;;;;;;10.63;5.27;;;6.10;99.90;;;;;;4340245;33;20717;-67
2021/03/15 02:18:32;;;;;;;8.57;5.07;;;6.00;99.90;;;;;;4338939;33;20188;-64
2021/03/15 02:21:44;;;;;;;16.03;5.80;;;6.00;99.90;;;;;;4344134;33;20255;-65
2021/03/15 02:24:17;;;;;;;10.83;6.30;;;6.00;99.90;;;;;;4342974;33;20200;-64
2021/03/15 02:27:14;;;;;;;14.10;6.30;;;6.00;99.90;;;;;;4339328;33;20625;-66
2021/03/15 02:29:56;;;;;;;14.03;6.43;;;5.90;99.90;;;;;;4338242;33;20187;-63
2021/03/15 02:32:52;;;;;;;11.03;6.30;;;5.90;99.90;;;;;;4344305;33;20700;-67
2021/03/15 02:35:20;;;;;;;18.90;7.30;;;6.00;99.90;;;;;;4344806;33;20213;-65
2021/03/15 02:37:50;;;;;;;15.73;7.50;;;6.00;99.90;;;;;;4344057;33;20237;-67
2021/03/15 02:40:23;;;;;;;13.37;7.53;;;5.90;99.90;;;;;;4343526;33;20165;-65
2021/03/15 02:42:53;;;;;;;12.53;7.20;;;5.90;99.90;;;;;;4340773;33;20154;-66
2021/03/15 02:45:20;;;;;;;13.73;7.57;;;5.90;99.90;;;;;;4343986;33;20169;-68
2021/03/15 02:47:50;;;;;;;17.27;7.87;;;5.90;99.90;;;;;;4343129;33;20275;-63
2021/03/15 02:50:17;;;;;;;14.23;7.40;;;6.00;99.90;;;;;;4341003;33;20201;-68
2021/03/15 02:52:47;;;;;;;13.07;8.40;;;6.10;99.90;;;;;;4369856;32;20140;-64
2021/03/15 02:55:17;;;;;;;18.67;8.47;;;6.10;99.90;;;;;;4391311;32;20564;-68
2021/03/15 02:57:46;;;;;;;15.20;9.33;;;6.10;99.90;;;;;;4389757;32;20611;-63
2021/03/15 03:00:17;;;;;;;14.23;7.93;;;6.10;99.90;;;;;;4391634;32;20160;-65
2021/03/15 03:02:45;;;;;;;13.50;7.37;;;6.10;99.90;;;;;;4384687;32;20175;-68
2021/03/15 03:05:14;;;;;;;12.93;7.83;;;6.20;99.90;;;;;;4382969;32;20163;-66
2021/03/15 03:07:44;;;;;;;14.87;8.50;;;6.20;99.90;;;;;;4387864;32;20194;-66
2021/03/15 03:10:13;;;;;;;20.93;8.50;;;6.20;99.90;;;;;;4390652;32;20252;-66
2021/03/15 03:12:41;;;;;;;16.53;9.23;;;6.30;99.90;;;;;;4390062;32;20524;-65
2021/03/15 03:15:09;;;;;;;21.23;9.17;;;6.20;99.90;;;;;;4389859;32;20479;-64
2021/03/15 03:17:38;;;;;;;19.87;9.57;;;6.20;99.90;;;;;;4389970;32;20190;-68
2021/03/15 03:20:07;;;;;;;16.07;9.00;;;6.30;99.90;;;;;;4386909;32;20201;-67
2021/03/15 03:22:36;;;;;;;13.10;8.33;;;6.30;99.90;;;;;;4391981;32;20477;-64
2021/03/15 03:25:02;;;;;;;19.73;10.27;;;6.30;99.90;;;;;;4393150;32;20148;-66
2021/03/15 03:27:31;;;;;;;13.87;9.07;;;6.20;99.90;;;;;;4386246;32;20509;-63
2021/03/15 03:29:58;;;;;;;14.47;8.90;;;6.20;99.90;;;;;;4385397;32;20148;-65
2021/03/15 03:32:26;;;;;;;16.93;9.03;;;6.20;99.90;;;;;;4390984;32;20152;-66
2021/03/15 03:34:54;;;;;;;17.40;10.57;;;6.30;99.90;;;;;;4390833;32;20156;-66
2021/03/15 03:37:20;;;;;;;24.67;10.73;;;6.20;99.90;;;;;;4389601;32;20287;-64
2021/03/15 03:39:47;;;;;;;18.37;10.40;;;6.20;99.90;;;;;;4389722;32;20174;-64
2021/03/15 03:42:13;;;;;;;23.03;9.73;;;6.20;99.90;;;;;;4391097;32;20148;-66
2021/03/15 03:44:40;;;;;;;26.40;11.63;;;6.10;99.90;;;;;;4389310;32;20178;-65
2021/03/15 03:47:07;;;;;;;18.67;10.53;;;6.10;99.90;;;;;;4393239;32;20223;-65
2021/03/15 03:49:33;;;;;;;17.83;9.83;;;6.20;99.90;;;;;;4387401;32;20168;-64
2021/03/15 03:52:02;;;;;;;20.87;10.83;;;6.20;99.90;;;;;;4382022;32;20156;-66
2021/03/15 03:54:30;;;;;;;30.37;10.73;;;6.10;99.90;;;;;;4390080;32;20151;-67
2021/03/15 03:57:02;;;;;;;18.03;9.00;;;6.30;99.90;;;;;;4392631;32;20597;-64
2021/03/15 03:59:31;;;;;;;15.87;9.43;;;6.30;99.90;;;;;;4388425;32;20185;-68
2021/03/15 04:02:03;;;;;;;15.67;8.20;;;6.30;99.90;;;;;;4390267;32;20148;-66
2021/03/15 04:04:37;;;;;;;17.33;8.77;;;6.30;99.80;;;;;;4390792;32;20156;-64
2021/03/15 04:07:06;;;;;;;18.70;9.07;;;6.30;99.80;;;;;;4387378;32;20224;-65
2021/03/15 04:09:35;;;;;;;17.63;8.87;;;6.40;99.70;;;;;;4389799;32;20490;-62
2021/03/15 04:12:06;;;;;;;17.00;9.10;;;6.30;99.70;;;;;;4385959;32;20603;-66
2021/03/15 04:14:37;;;;;;;14.47;8.87;;;6.30;99.70;;;;;;4386448;32;20155;-67
2021/03/15 04:17:05;;;;;;;18.67;8.50;;;6.40;99.60;;;;;;4386377;32;20140;-67
2021/03/15 04:19:36;;;;;;;15.17;8.03;;;6.30;99.60;;;;;;4389819;32;20188;-65
2021/03/15 04:22:06;;;;;;;21.87;9.07;;;6.40;99.90;;;;;;4385644;32;20186;-64
2021/03/15 04:24:35;;;;;;;23.23;9.80;;;6.40;99.50;;;;;;4388220;32;20160;-69
2021/03/15 04:27:03;;;;;;;16.67;8.10;;;6.30;99.50;;;;;;4389619;32;20464;-67
2021/03/15 04:29:32;;;;;;;20.93;8.10;;;6.30;99.50;;;;;;4390687;32;20521;-67
2021/03/15 04:32:00;;;;;;;19.43;8.70;;;6.30;99.40;;;;;;4389315;32;20144;-66
2021/03/15 04:34:28;;;;;;;16.53;8.13;;;6.30;99.40;;;;;;4384371;32;20306;-63
2021/03/15 04:36:56;;;;;;;14.53;7.87;;;6.30;99.40;;;;;;4387519;32;20171;-64
2021/03/15 04:39:23;;;;;;;13.93;7.57;;;6.30;99.40;;;;;;4389661;32;20149;-63
2021/03/15 04:41:50;;;;;;;17.93;8.10;;;6.30;99.30;;;;;;4386826;32;20206;-64
2021/03/15 04:44:17;;;;;;;17.03;7.70;;;6.20;99.10;;;;;;4384405;32;20143;-64
2021/03/15 04:46:44;;;;;;;16.10;7.07;;;6.20;99.10;;;;;;4390350;32;20179;-64
2021/03/15 04:49:12;;;;;;;11.47;6.93;;;6.20;99.10;;;;;;4387363;32;20269;-64
2021/03/15 04:51:40;;;;;;;16.13;8.03;;;6.20;99.20;;;;;;4383346;32;20182;-64
2021/03/15 04:54:07;;;;;;;17.50;8.30;;;6.20;99.20;;;;;;4380000;32;20218;-63
2021/03/15 04:56:36;;;;;;;16.37;9.00;;;6.20;99.20;;;;;;4387342;32;20210;-63
2021/03/15 04:59:04;;;;;;;17.53;9.73;;;6.10;99.20;;;;;;4389007;32;20626;-63
2021/03/15 05:01:33;;;;;;;21.80;10.13;;;6.10;99.30;;;;;;4388845;32;20168;-64
2021/03/15 05:04:00;;;;;;;22.20;10.80;;;6.00;99.40;;;;;;4388623;32;20189;-63
2021/03/15 05:06:28;;;;;;;18.13;9.40;;;6.10;99.30;;;;;;4387802;32;20231;-63
2021/03/15 05:08:57;;;;;;;18.07;8.93;;;6.10;99.80;;;;;;4389919;32;20223;-64
2021/03/15 05:11:29;;;;;;;19.20;9.13;;;6.10;99.40;;;;;;4386895;32;20148;-63
2021/03/15 05:13:58;;;;;;;19.57;9.03;;;6.10;99.50;;;;;;4390869;32;20136;-64
2021/03/15 05:16:25;;;;;;;18.27;9.10;;;6.10;99.40;;;;;;4390780;32;20206;-63
2021/03/15 05:18:52;;;;;;;20.77;8.53;;;6.00;99.50;;;;;;4387275;32;20175;-64
2021/03/15 05:21:19;;;;;;;15.77;8.73;;;6.00;99.60;;;;;;4380846;32;20163;-64
2021/03/15 05:23:46;;;;;;;15.63;8.37;;;6.10;99.70;;;;;;4387667;32;20168;-63
2021/03/15 05:26:15;;;;;;;13.60;7.50;;;6.10;99.50;;;;;;4387765;32;20175;-64
2021/03/15 05:28:45;;;;;;;22.50;7.57;;;6.00;99.30;;;;;;4389451;32;20175;-64
2021/03/15 05:31:13;;;;;;;19.47;7.43;;;6.00;99.40;;;;;;4389924;32;20204;-64
2021/03/15 05:33:41;;;;;;;16.17;7.87;;;5.90;99.20;;;;;;4389271;32;20148;-64
2021/03/15 05:36:10;;;;;;;18.13;7.93;;;5.80;99.00;;;;;;4388679;32;20152;-64
2021/03/15 05:38:36;;;;;;;15.60;7.97;;;5.60;99.20;;;;;;4388913;32;20163;-65
2021/03/15 05:41:04;;;;;;;15.60;8.10;;;5.50;99.30;;;;;;4386647;32;20299;-65
2021/03/15 05:43:49;;;;;;;18.63;8.07;;;5.40;99.70;;;;;;4388939;32;20186;-64
2021/03/15 05:46:59;;;;;;;16.23;9.13;;;5.30;99.80;;;;;;4386507;32;20209;-64
2021/03/15 05:49:52;;;;;;;25.27;9.27;;;5.30;99.80;;;;;;4319556;33;20240;-64
2021/03/15 05:52:34;;;;;;;21.73;9.10;;;5.20;99.90;;;;;;4324142;33;20237;-66
2021/03/15 05:55:38;;;;;;;18.17;9.47;;;5.20;99.90;;;;;;4326230;33;20236;-65
2021/03/15 05:58:24;;;;;;;23.47;9.10;;;5.20;99.90;;;;;;4324304;33;20192;-66
2021/03/15 06:01:08;;;;;;;27.93;9.37;;;5.20;99.90;;;;;;4323596;33;20652;-66
2021/03/15 06:04:21;;;;;;;19.30;8.33;;;5.20;99.90;;;;;;4313255;33;20157;-64
2021/03/15 06:06:48;;;;;;;20.10;7.17;;;5.30;99.90;;;;;;4277171;33;20154;-66
2021/03/15 06:09:20;;;;;;;18.17;7.60;;;5.50;99.90;;;;;;4281286;33;20183;-65
2021/03/15 06:11:49;;;;;;;24.07;6.83;;;5.60;99.90;;;;;;4277727;33;20174;-64
2021/03/15 06:14:17;;;;;;;15.70;6.40;;;5.60;99.90;;;;;;4280286;33;20555;-63
2021/03/15 06:16:44;;;;;;;24.30;6.77;;;5.60;99.90;;;;;;4279783;33;20226;-66
2021/03/15 06:19:12;;;;;;;21.67;7.00;;;5.70;99.90;;;;;;4278160;33;20188;-67
2021/03/15 06:21:41;;;;;;;17.83;6.17;;;5.70;99.90;;;;;;4287583;33;20177;-64
2021/03/15 06:24:08;;;;;;;21.63;7.60;;;5.70;99.90;;;;;;4281629;33;20574;-64
2021/03/15 06:26:36;;;;;;;24.43;8.90;;;5.80;99.90;;;;;;4304075;33;20757;-67
2021/03/15 06:29:04;;;;;;;18.20;7.93;;;5.80;99.90;;;;;;4305388;33;20157;-63
2021/03/15 06:31:32;;;;;;;29.50;10.47;;;5.90;99.90;;;;;;4308861;33;20820;-64
2021/03/15 06:34:00;;;;;;;21.70;8.77;;;5.90;99.50;;;;;;4307731;33;20662;-64
2021/03/15 06:36:27;;;;;;;22.60;7.53;;;5.80;99.50;;;;;;4305282;33;20245;-63
2021/03/15 06:38:56;;;;;;;22.07;8.73;;;6.00;99.80;;;;;;4310446;33;20188;-64
2021/03/15 06:41:23;;;;;;;19.07;7.57;;;6.10;99.70;;;;;;4310502;33;20301;-62
2021/03/15 06:43:50;;;;;;;24.10;7.97;;;6.20;99.50;;;;;;4358147;32;20204;-65
2021/03/15 06:46:17;;;;;;;25.00;6.80;;;6.30;99.30;;;;;;4388737;32;20215;-64
2021/03/15 06:48:46;;;;;;;15.57;6.37;;;6.30;99.00;;;;;;4389156;32;20234;-65
2021/03/15 06:51:16;;;;;;;25.57;6.67;;;6.30;98.90;;;;;;4388524;32;20480;-62
2021/03/15 06:53:43;;;;;;;21.13;5.50;;;6.20;99.00;;;;;;4387366;32;20203;-64
2021/03/15 06:56:11;;;;;;;29.33;6.70;;;6.20;99.00;;;;;;4389527;32;20231;-64
2021/03/15 06:58:48;;;;;;;21.87;5.43;;;6.20;98.50;;;;;;4388653;32;20144;-64
2021/03/15 07:01:17;;;;;;;17.77;5.33;;;6.20;98.60;;;;;;4388786;32;20164;-67
2021/03/15 07:03:44;;;;;;;21.23;4.80;;;6.40;98.90;;;;;;4389559;32;20290;-63
2021/03/15 07:06:12;;;;;;;18.20;4.80;;;6.80;98.60;;;;;;4387569;32;20148;-64
2021/03/15 07:08:40;;;;;;;21.37;4.50;;;7.00;97.80;;;;;;4387516;32;20171;-66
2021/03/15 07:11:17;;;;;;;13.50;3.80;;;7.20;97.70;;;;;;4388698;32;20231;-64
2021/03/15 07:13:52;;;;;;;17.97;4.50;;;7.40;97.30;;;;;;4390369;32;20234;-64
2021/03/15 07:16:23;;;;;;;17.10;4.20;;;7.80;96.70;;;;;;4386347;32;20238;-64
2021/03/15 07:18:50;;;;;;;25.47;5.03;;;7.60;96.20;;;;;;4389330;32;20472;-64
2021/03/15 07:21:31;;;;;;;23.13;4.20;;;7.70;96.10;;;;;;4388028;32;20216;-64
2021/03/15 07:24:02;;;;;;;25.53;4.77;;;7.60;95.70;;;;;;4389906;32;20558;-64
2021/03/15 07:26:29;;;;;;;18.70;3.80;;;7.60;95.50;;;;;;4390586;32;20163;-64
2021/03/15 07:28:58;;;;;;;20.77;3.93;;;7.70;95.60;;;;;;4389167;32;20148;-64
2021/03/15 07:31:32;;;;;;;20.40;3.87;;;7.60;95.70;;;;;;4385680;32;20153;-63
2021/03/15 07:34:18;;;;;;;24.60;3.97;;;7.70;95.00;;;;;;4388746;32;20561;-63
2021/03/15 07:36:58;;;;;;;14.97;3.50;;;7.90;94.40;;;;;;4388403;32;20473;-63
2021/03/15 07:39:27;;;;;;;15.70;3.20;;;7.80;94.60;;;;;;4387360;32;20205;-68
2021/03/15 07:41:55;;;;;;;15.83;3.40;;;7.60;94.80;;;;;;4388317;32;20171;-64
2021/03/15 07:44:25;;;;;;;20.20;4.43;;;7.90;94.70;;;;;;4388235;32;20191;-63
2021/03/15 07:46:52;;;;;;;15.30;3.57;;;8.10;94.10;;;;;;4382814;32;20297;-65
2021/03/15 07:49:24;;;;;;;23.00;4.03;;;8.00;94.00;;;;;;4388512;32;20168;-65
2021/03/15 07:51:55;;;;;;;21.43;3.20;;;7.80;94.20;;;;;;4384533;32;20222;-65
2021/03/15 07:54:27;;;;;;;12.10;2.87;;;7.00;94.10;;;;;;4389604;32;20172;-65
2021/03/15 07:57:28;;;;;;;9.47;2.47;;;6.40;95.80;;;;;;4390345;32;20480;-62
2021/03/15 08:00:00;;;;;;;9.83;2.87;;;6.40;96.00;;;;;;4389548;32;20219;-62
2021/03/15 08:02:38;;;;;;;19.90;3.03;;;6.40;95.80;;;;;;4382848;32;20235;-65
2021/03/15 08:05:23;;;;;;;20.63;3.13;;;6.40;96.00;;;;;;4385898;32;20211;-65
2021/03/15 08:07:51;;;;;;;15.03;2.63;;;6.60;96.90;;;;;;4384443;32;20164;-66
2021/03/15 08:13:30;;;;;;;10.57;2.57;;;7.40;95.10;;;;;;4387295;32;20187;-63
2021/03/15 08:16:06;;;;;;;12.17;2.87;;;7.20;93.10;;;;;;4380692;32;20148;-64
2021/03/15 08:18:45;;;;;;;14.83;2.87;;;7.20;94.40;;;;;;4387531;32;20227;-63
2021/03/15 08:21:19;;;;;;;15.17;2.90;;;7.30;93.20;;;;;;4389988;32;20308;-64
2021/03/15 08:24:15;;;;;;;16.47;2.27;;;7.60;92.90;;;;;;4390883;32;20197;-67
2021/03/15 08:27:04;;;;;;;15.20;3.40;;;7.60;92.60;;;;;;4293442;33;20225;-68
2021/03/15 08:29:50;;;;;;;;;;;;;;;;;;;;;
2021/03/15 08:32:36;;;;;;;11.33;2.90;;;7.50;94.60;;;;;;4296326;33;20146;-63
2021/03/15 08:35:10;;;;;;;14.17;2.33;;;7.90;92.90;;;;;;4296836;33;20176;-63
2021/03/15 08:44:40;;;;;;;16.23;2.50;;;8.20;91.90;;;;;;4141629;32;7631865;-64
2021/03/15 08:48:06;;;;;;;16.87;3.33;;;8.10;91.20;;;;;;4308922;33;20185;-63
2021/03/15 08:50:58;;;;;;;13.73;3.00;;;8.40;91.30;;;;;;4323616;33;20223;-66
2021/03/15 08:53:55;;;;;;;11.37;2.73;;;8.30;91.20;;;;;;4324766;33;20183;-65
2021/03/15 08:56:50;;;;;;;12.20;3.53;;;8.10;91.80;;;;;;4272296;33;21582;-66
2021/03/15 08:59:33;;;;;;;16.83;2.67;;;7.90;92.50;;;;;;4270451;33;20772;-66
2021/03/15 09:02:41;;;;;;;16.03;2.90;;;7.70;92.40;;;;;;4268532;33;20230;-63
2021/03/15 09:05:28;;;;;;;14.33;2.40;;;7.30;93.40;;;;;;4271914;33;20717;-64
2021/03/15 09:12:27;;;;;;;12.03;3.30;;;7.30;93.80;;;;;;4265708;33;20155;-69
2021/03/15 09:15:06;;;;;;;13.57;2.97;;;8.00;92.40;;;;;;4269461;33;20341;-64
2021/03/15 09:17:51;;;;;;;17.40;2.77;;;8.40;91.90;;;;;;4272893;33;20196;-66
2021/03/15 09:20:39;;;;;;;9.33;2.77;;;8.40;91.70;;;;;;4267063;33;20335;-64
2021/03/15 09:23:59;;;;;;;23.17;3.30;;;8.30;92.10;;;;;;4280942;33;20173;-66
2021/03/15 09:26:53;;;;;;;19.00;3.23;;;8.30;91.70;;;;;;4281275;33;20201;-63
2021/03/15 09:29:34;;;;;;;20.83;4.20;;;8.10;90.70;;;;;;4266818;33;20628;-65
2021/03/15 09:32:11;;;;;;;15.57;2.83;;;8.20;91.40;;;;;;4274852;33;20149;-65
2021/03/15 09:35:16;;;;;;;16.27;3.13;;;8.10;90.50;;;;;;4306199;33;20169;-64
2021/03/15 09:38:18;;;;;;;14.47;3.30;;;7.90;91.70;;;;;;4245113;33;20227;-65
2021/03/15 09:41:04;;;;;;;;;;;;;;;;;;;;;
2021/03/15 09:43:39;;;;;;;21.90;4.07;;;8.10;91.40;;;;;;4238256;33;20177;-63
2021/03/15 09:46:38;;;;;;;12.47;3.40;;;8.00;90.20;;;;;;4243056;33;20194;-66
2021/03/15 09:49:18;;;;;;;15.97;2.63;;;8.10;90.20;;;;;;4208411;34;20191;-62
2021/03/15 09:51:55;;;;;;;13.20;2.80;;;8.00;89.70;;;;;;4211402;34;20243;-64
2021/03/15 09:54:52;;;;;;;17.97;3.87;;;8.10;90.00;;;;;;4212665;34;20266;-65
2021/03/15 09:57:25;;;;;;;12.30;2.73;;;8.00;88.30;;;;;;4215173;34;20191;-66
2021/03/15 10:00:10;;;;;;;9.67;2.17;;;7.90;87.90;;;;;;4211120;34;20550;-63
2021/03/15 10:02:41;;;;;;;11.97;2.40;;;7.90;87.20;;;;;;4248634;33;21333;-64
2021/03/15 10:05:19;;;;;;;11.37;1.97;;;8.00;87.30;;;;;;4270264;33;20189;-62
2021/03/15 10:07:49;;;;;;;6.37;2.00;;;8.00;85.20;;;;;;4280270;33;20158;-63
2021/03/15 10:10:37;;;;;;;9.33;1.77;;;8.00;86.20;;;;;;4284296;33;20158;-64
2021/03/15 10:13:06;;;;;;;11.17;1.77;;;8.10;84.90;;;;;;4288527;33;20190;-66
2021/03/15 10:15:46;;;;;;;8.17;2.10;;;8.10;83.90;;;;;;4281849;33;20201;-65
2021/03/15 10:18:20;;;;;;;10.57;1.77;;;8.10;83.80;;;;;;4290072;33;20890;-66
2021/03/15 10:20:47;;;;;;;6.07;1.57;;;8.10;83.90;;;;;;4285503;33;20189;-63
2021/03/15 10:23:16;;;;;;;11.40;2.13;;;8.40;83.10;;;;;;4292874;33;20174;-64
2021/03/15 10:25:54;;;;;;;7.17;1.80;;;8.60;81.60;;;;;;4300686;33;20265;-62
2021/03/15 10:28:21;;;;;;;9.50;2.57;;;8.80;82.60;;;;;;4313617;33;20232;-65
2021/03/15 10:30:54;;;;;;;20.23;3.17;;;9.00;82.50;;;;;;4315160;33;20166;-65
2021/03/15 10:33:21;;;;;;;9.90;2.20;;;8.90;82.50;;;;;;4324445;32;20173;-66
2021/03/15 10:35:49;;;;;;;13.20;2.57;;;9.10;83.50;;;;;;4364669;32;20480;-66
2021/03/15 10:38:19;;;;;;;14.90;2.70;;;9.20;83.30;;;;;;4358414;32;20184;-65
2021/03/15 10:40:47;;;;;;;10.10;2.00;;;9.10;81.50;;;;;;4357559;32;20258;-64
2021/03/15 10:43:17;;;;;;;20.00;3.30;;;9.20;82.40;;;;;;4370663;32;20160;-64
2021/03/15 10:45:46;;;;;;;12.43;2.53;;;9.30;82.40;;;;;;4381422;32;20153;-65
2021/03/15 10:48:13;;;;;;;13.90;2.60;;;9.30;82.80;;;;;;4385616;32;20200;-66
2021/03/15 10:50:55;;;;;;;11.43;3.20;;;8.90;81.50;;;;;;4385586;32;20212;-65
2021/03/15 10:53:24;;;;;;;14.90;2.33;;;8.90;82.40;;;;;;4388939;32;20186;-64
2021/03/15 10:55:59;;;;;;;13.23;3.03;;;8.80;82.00;;;;;;4384275;32;20253;-67
2021/03/15 10:58:38;;;;;;;20.97;2.63;;;9.10;81.00;;;;;;4380269;32;20152;-65
2021/03/15 11:01:20;;;;;;;8.27;2.73;;;9.30;82.70;;;;;;4383573;32;21060;-64
2021/03/15 11:03:48;;;;;;;9.77;2.20;;;9.30;80.70;;;;;;4384561;32;20229;-63
2021/03/15 11:06:18;;;;;;;17.63;3.00;;;9.20;84.00;;;;;;4385700;32;20258;-66
2021/03/15 11:08:58;;;;;;;11.87;2.53;;;9.10;82.40;;;;;;4384459;32;20516;-65
2021/03/15 11:11:27;;;;;;;17.70;2.83;;;9.00;82.40;;;;;;4384680;32;20159;-64
2021/03/15 11:13:55;;;;;;;16.43;2.80;;;9.10;82.10;;;;;;4385998;32;20175;-65
2021/03/15 11:16:32;;;;;;;13.13;2.80;;;9.10;81.50;;;;;;4384880;32;20229;-65
2021/03/15 11:19:12;;;;;;;14.90;2.77;;;9.20;80.70;;;;;;4385762;32;20227;-64
2021/03/15 11:21:40;;;;;;;12.97;3.00;;;9.20;81.40;;;;;;4383327;32;20144;-65
2021/03/15 11:24:09;;;;;;;9.50;2.10;;;9.50;82.50;;;;;;4386025;32;20655;-65
2021/03/15 11:26:44;;;;;;;12.60;2.50;;;10.00;81.80;;;;;;4379833;32;20213;-66
2021/03/15 11:29:13;;;;;;;15.73;2.60;;;10.20;80.90;;;;;;4386196;32;20223;-63
2021/03/15 11:31:47;;;;;;;11.17;2.17;;;10.60;77.90;;;;;;4384293;32;20156;-64
2021/03/15 11:34:20;;;;;;;10.83;2.47;;;10.10;79.00;;;;;;4384435;32;20230;-63
2021/03/15 11:36:54;;;;;;;14.07;2.77;;;10.10;79.80;;;;;;4382284;32;20159;-63
2021/03/15 11:39:22;;;;;;;9.17;2.27;;;10.00;80.20;;;;;;4383342;32;20221;-64
2021/03/15 11:41:48;;;;;;;13.73;2.53;;;10.10;81.20;;;;;;4383561;32;20172;-66
2021/03/15 11:44:28;;;;;;;9.80;2.10;;;9.70;83.10;;;;;;4386084;32;20187;-63
2021/03/15 11:46:56;;;;;;;14.13;2.77;;;9.00;84.20;;;;;;4384239;32;20239;-66
2021/03/15 11:49:24;;;;;;;15.30;2.93;;;8.50;86.70;;;;;;4381641;32;20632;-63
2021/03/15 11:51:55;;;;;;;10.50;2.50;;;8.40;88.10;;;;;;4381535;32;20463;-66
2021/03/15 11:54:23;;;;;;;23.07;4.00;;;8.50;90.00;;;;;;4380665;32;20296;-66
2021/03/15 11:57:00;;;;;;;12.70;2.67;;;8.50;90.40;;;;;;4384048;32;20164;-64
2021/03/15 11:59:27;;;;;;;14.33;3.27;;;8.00;92.00;;;;;;4383991;32;20144;-65
2021/03/15 12:01:56;;;;;;;17.60;3.20;;;7.60;93.20;;;;;;4384855;32;20270;-67
2021/03/15 12:04:29;;;;;;;15.43;2.50;;;7.40;94.10;;;;;;4384740;32;20490;-64
2021/03/15 12:06:58;;;;;;;15.27;3.23;;;7.40;94.20;;;;;;4383185;32;20151;-67
2021/03/15 12:09:31;;;;;;;15.00;3.10;;;7.40;94.50;;;;;;4385275;32;20268;-66
2021/03/15 12:11:59;;;;;;;19.00;3.90;;;7.40;94.70;;;;;;4385455;32;20164;-67
2021/03/15 12:14:26;;;;;;;16.13;3.10;;;7.30;94.60;;;;;;4381517;32;20616;-63
2021/03/15 12:17:10;;;;;;;;;;;;;;;;;;;;;
2021/03/15 12:23:08;;;;;;;18.00;3.27;;;7.50;95.30;;;;;;4324422;33;20252;-65
2021/03/15 12:25:37;;;;;;;10.77;2.67;;;7.60;94.20;;;;;;4325027;33;20169;-64
2021/03/15 12:28:05;;;;;;;18.13;3.13;;;7.50;94.50;;;;;;4326401;33;20181;-65
2021/03/15 12:30:32;;;;;;;18.00;3.47;;;7.40;94.90;;;;;;4325350;33;20248;-63
2021/03/15 12:32:59;;;;;;;24.00;5.00;;;7.30;95.10;;;;;;4322118;33;20759;-67
2021/03/15 12:35:26;;;;;;;13.67;3.00;;;7.40;95.40;;;;;;4324303;33;20240;-66
2021/03/15 12:37:53;;;;;;;19.50;3.33;;;7.90;96.00;;;;;;4324419;33;20235;-66
2021/03/15 12:40:20;;;;;;;14.53;4.07;;;8.20;94.10;;;;;;4324226;33;20169;-65
2021/03/15 12:42:47;;;;;;;16.30;3.10;;;8.30;93.50;;;;;;4322383;33;20248;-63
2021/03/15 12:45:14;;;;;;;18.70;3.43;;;8.50;93.40;;;;;;4322222;33;20236;-65
2021/03/15 12:47:41;;;;;;;11.87;2.23;;;8.60;92.60;;;;;;4322192;33;20686;-63
2021/03/15 12:50:08;;;;;;;14.93;2.53;;;8.20;91.90;;;;;;4325165;33;20714;-63
2021/03/15 12:52:35;;;;;;;11.37;2.50;;;7.80;92.50;;;;;;4326170;33;20890;-65
2021/03/15 12:55:02;;;;;;;7.67;2.03;;;7.60;92.50;;;;;;4324526;33;20161;-65
2021/03/15 12:57:28;;;;;;;9.97;1.97;;;7.60;92.80;;;;;;4368243;32;20233;-62
2021/03/15 12:59:55;;;;;;;11.23;2.47;;;7.50;93.20;;;;;;4382490;32;20161;-63
2021/03/15 13:02:22;;;;;;;16.13;3.10;;;7.30;93.20;;;;;;4378490;32;20223;-63
2021/03/15 13:04:48;;;;;;;13.00;2.57;;;7.40;94.50;;;;;;4382033;32;20589;-65
2021/03/15 13:07:15;;;;;;;13.20;2.90;;;7.60;94.10;;;;;;4384113;32;20167;-63
2021/03/15 13:09:41;;;;;;;20.40;3.93;;;7.70;93.50;;;;;;4383680;32;20223;-65
2021/03/15 13:12:09;;;;;;;14.87;2.83;;;8.10;92.80;;;;;;4381939;32;20216;-62
2021/03/15 13:14:36;;;;;;;14.10;2.77;;;8.30;91.80;;;;;;4383338;32;20175;-65
2021/03/15 13:17:03;;;;;;;22.73;3.40;;;8.40;91.20;;;;;;4381328;32;20175;-65
2021/03/15 13:19:30;;;;;;;21.13;4.00;;;8.40;91.50;;;;;;4377543;32;20206;-63
2021/03/15 13:21:56;;;;;;;23.07;3.93;;;8.50;90.80;;;;;;4376969;32;20228;-66
2021/03/15 13:24:22;;;;;;;15.93;3.50;;;8.50;90.70;;;;;;4381511;32;20238;-64
2021/03/15 13:26:49;;;;;;;15.40;2.97;;;8.70;91.40;;;;;;4386473;32;20168;-63
2021/03/15 13:29:15;;;;;;;19.47;2.53;;;8.80;90.50;;;;;;4383919;32;20182;-62
2021/03/15 13:31:42;;;;;;;20.37;4.00;;;8.50;90.40;;;;;;4376921;32;20219;-63
2021/03/15 13:34:10;;;;;;;18.83;3.73;;;8.30;91.80;;;;;;4381448;32;20223;-66
2021/03/15 13:36:36;;;;;;;11.93;3.00;;;8.20;91.80;;;;;;4380953;32;20242;-65
2021/03/15 13:39:04;;;;;;;13.03;2.60;;;8.50;91.80;;;;;;4379375;32;20164;-64
2021/03/15 13:41:31;;;;;;;14.30;2.87;;;8.50;91.90;;;;;;4381878;32;20160;-65
2021/03/15 13:43:57;;;;;;;11.17;3.10;;;8.50;92.20;;;;;;4382685;32;20160;-63